Terminal Forecast for MSP Airport


000
FTUS43 KMPX 171700
TAFMSP
TAF
KMSP 171740Z 1718/1824 00000KT P6SM FEW060
     FM180100 05004KT P6SM SKC
     FM181100 08006KT P6SM SCT010 SCT250
     FM181500 13008KT P6SM SCT250=

CCFP Forecasts (click for larger image)

 



USA.gov is the U.S. government's official web portal to all federal, state and local government web resources and services.